sensor_id;sensor_type;location;lat;lon;timestamp;P1;durP1;ratioP1;P2;durP2;ratioP2
58637;SDS011;54976;51.510;7.522;2023-04-25T00:01:55;16.65;;;5.28;;
58637;SDS011;54976;51.510;7.522;2023-04-25T00:04:56;14.70;;;5.38;;
58637;SDS011;54976;51.510;7.522;2023-04-25T00:07:58;19.45;;;5.50;;
58637;SDS011;54976;51.510;7.522;2023-04-25T00:10:58;10.88;;;4.78;;
58637;SDS011;54976;51.510;7.522;2023-04-25T00:13:59;18.05;;;5.15;;
58637;SDS011;54976;51.510;7.522;2023-04-25T00:17:02;16.67;;;5.05;;
58637;SDS011;54976;51.510;7.522;2023-04-25T00:20:04;17.88;;;5.00;;
58637;SDS011;54976;51.510;7.522;2023-04-25T00:23:06;17.10;;;4.93;;
58637;SDS011;54976;51.510;7.522;2023-04-25T00:26:07;20.35;;;4.82;;
58637;SDS011;54976;51.510;7.522;2023-04-25T00:29:08;25.00;;;5.63;;
58637;SDS011;54976;51.510;7.522;2023-04-25T00:32:08;15.07;;;4.68;;
58637;SDS011;54976;51.510;7.522;2023-04-25T00:35:09;18.00;;;5.57;;
58637;SDS011;54976;51.510;7.522;2023-04-25T00:38:10;18.60;;;4.97;;
58637;SDS011;54976;51.510;7.522;2023-04-25T00:41:11;16.33;;;5.03;;
58637;SDS011;54976;51.510;7.522;2023-04-25T00:44:12;16.45;;;5.07;;
58637;SDS011;54976;51.510;7.522;2023-04-25T00:47:13;21.67;;;6.00;;
58637;SDS011;54976;51.510;7.522;2023-04-25T00:50:14;18.13;;;5.88;;
58637;SDS011;54976;51.510;7.522;2023-04-25T00:53:15;16.50;;;5.93;;
58637;SDS011;54976;51.510;7.522;2023-04-25T00:56:16;18.65;;;6.35;;
58637;SDS011;54976;51.510;7.522;2023-04-25T00:59:16;23.17;;;6.53;;
58637;SDS011;54976;51.510;7.522;2023-04-25T01:02:19;19.80;;;6.30;;
58637;SDS011;54976;51.510;7.522;2023-04-25T01:05:20;13.48;;;6.40;;
58637;SDS011;54976;51.510;7.522;2023-04-25T01:08:21;17.38;;;7.15;;
58637;SDS011;54976;51.510;7.522;2023-04-25T01:11:25;13.57;;;6.37;;
58637;SDS011;54976;51.510;7.522;2023-04-25T01:14:26;14.88;;;6.65;;
58637;SDS011;54976;51.510;7.522;2023-04-25T01:17:27;13.38;;;6.15;;
58637;SDS011;54976;51.510;7.522;2023-04-25T01:20:29;14.70;;;6.25;;
58637;SDS011;54976;51.510;7.522;2023-04-25T01:23:31;12.70;;;6.30;;
58637;SDS011;54976;51.510;7.522;2023-04-25T01:26:33;17.88;;;6.93;;
58637;SDS011;54976;51.510;7.522;2023-04-25T01:29:35;11.25;;;6.35;;
58637;SDS011;54976;51.510;7.522;2023-04-25T01:32:36;13.70;;;6.80;;
58637;SDS011;54976;51.510;7.522;2023-04-25T01:35:39;18.30;;;6.82;;
58637;SDS011;54976;51.510;7.522;2023-04-25T01:38:40;14.05;;;6.97;;
58637;SDS011;54976;51.510;7.522;2023-04-25T01:41:41;17.27;;;7.85;;
58637;SDS011;54976;51.510;7.522;2023-04-25T01:44:42;15.25;;;6.53;;
58637;SDS011;54976;51.510;7.522;2023-04-25T01:47:43;18.67;;;7.45;;
58637;SDS011;54976;51.510;7.522;2023-04-25T01:50:46;14.55;;;7.65;;
58637;SDS011;54976;51.510;7.522;2023-04-25T01:53:47;21.98;;;8.25;;
58637;SDS011;54976;51.510;7.522;2023-04-25T01:56:51;12.68;;;7.57;;
58637;SDS011;54976;51.510;7.522;2023-04-25T01:59:54;12.45;;;7.57;;
58637;SDS011;54976;51.510;7.522;2023-04-25T02:03:00;17.60;;;8.15;;
58637;SDS011;54976;51.510;7.522;2023-04-25T02:06:01;22.95;;;8.30;;
58637;SDS011;54976;51.510;7.522;2023-04-25T02:09:02;18.23;;;7.97;;
58637;SDS011;54976;51.510;7.522;2023-04-25T02:12:02;14.57;;;7.65;;
58637;SDS011;54976;51.510;7.522;2023-04-25T02:15:03;19.52;;;9.18;;
58637;SDS011;54976;51.510;7.522;2023-04-25T02:18:04;17.73;;;9.18;;
58637;SDS011;54976;51.510;7.522;2023-04-25T02:21:06;21.48;;;9.32;;
58637;SDS011;54976;51.510;7.522;2023-04-25T02:24:07;23.58;;;9.70;;
58637;SDS011;54976;51.510;7.522;2023-04-25T02:27:07;23.60;;;9.40;;
58637;SDS011;54976;51.510;7.522;2023-04-25T02:30:08;25.65;;;9.98;;
58637;SDS011;54976;51.510;7.522;2023-04-25T02:33:09;21.65;;;9.25;;
58637;SDS011;54976;51.510;7.522;2023-04-25T02:36:10;21.85;;;10.05;;
58637;SDS011;54976;51.510;7.522;2023-04-25T02:39:10;29.95;;;10.07;;
58637;SDS011;54976;51.510;7.522;2023-04-25T02:42:11;25.55;;;9.75;;
58637;SDS011;54976;51.510;7.522;2023-04-25T02:45:12;22.17;;;9.60;;
58637;SDS011;54976;51.510;7.522;2023-04-25T02:48:12;25.45;;;10.02;;
58637;SDS011;54976;51.510;7.522;2023-04-25T02:51:13;23.80;;;10.93;;
58637;SDS011;54976;51.510;7.522;2023-04-25T02:54:16;21.45;;;11.15;;
58637;SDS011;54976;51.510;7.522;2023-04-25T02:57:16;27.67;;;11.93;;
58637;SDS011;54976;51.510;7.522;2023-04-25T03:00:17;28.05;;;12.68;;
58637;SDS011;54976;51.510;7.522;2023-04-25T03:03:18;25.00;;;11.98;;
58637;SDS011;54976;51.510;7.522;2023-04-25T03:06:21;27.67;;;12.75;;
58637;SDS011;54976;51.510;7.522;2023-04-25T03:09:21;26.90;;;12.07;;
58637;SDS011;54976;51.510;7.522;2023-04-25T03:12:22;23.20;;;12.70;;
58637;SDS011;54976;51.510;7.522;2023-04-25T03:15:23;29.23;;;11.38;;
58637;SDS011;54976;51.510;7.522;2023-04-25T03:18:23;26.48;;;12.38;;
58637;SDS011;54976;51.510;7.522;2023-04-25T03:21:24;23.30;;;11.75;;
58637;SDS011;54976;51.510;7.522;2023-04-25T03:24:25;26.67;;;10.98;;
58637;SDS011;54976;51.510;7.522;2023-04-25T03:27:27;37.15;;;12.65;;
58637;SDS011;54976;51.510;7.522;2023-04-25T03:30:27;23.83;;;10.82;;
58637;SDS011;54976;51.510;7.522;2023-04-25T03:33:28;27.88;;;9.93;;
58637;SDS011;54976;51.510;7.522;2023-04-25T03:36:28;30.40;;;10.05;;
58637;SDS011;54976;51.510;7.522;2023-04-25T03:39:29;17.38;;;10.30;;
58637;SDS011;54976;51.510;7.522;2023-04-25T03:42:29;20.73;;;9.85;;
58637;SDS011;54976;51.510;7.522;2023-04-25T03:45:31;33.85;;;10.85;;
58637;SDS011;54976;51.510;7.522;2023-04-25T03:48:32;30.05;;;10.55;;
58637;SDS011;54976;51.510;7.522;2023-04-25T03:51:32;18.75;;;8.65;;
58637;SDS011;54976;51.510;7.522;2023-04-25T03:54:33;30.02;;;9.55;;
58637;SDS011;54976;51.510;7.522;2023-04-25T03:57:34;27.90;;;8.35;;
58637;SDS011;54976;51.510;7.522;2023-04-25T04:00:34;23.63;;;8.40;;
58637;SDS011;54976;51.510;7.522;2023-04-25T04:03:36;18.02;;;7.72;;
58637;SDS011;54976;51.510;7.522;2023-04-25T04:06:36;24.30;;;8.20;;
58637;SDS011;54976;51.510;7.522;2023-04-25T04:09:37;24.10;;;8.52;;
58637;SDS011;54976;51.510;7.522;2023-04-25T04:12:38;25.75;;;8.98;;
58637;SDS011;54976;51.510;7.522;2023-04-25T04:15:39;21.27;;;7.20;;
58637;SDS011;54976;51.510;7.522;2023-04-25T04:18:39;18.23;;;7.38;;
58637;SDS011;54976;51.510;7.522;2023-04-25T04:21:40;31.30;;;9.85;;
58637;SDS011;54976;51.510;7.522;2023-04-25T04:24:41;23.33;;;6.82;;
58637;SDS011;54976;51.510;7.522;2023-04-25T04:27:43;16.40;;;4.70;;
58637;SDS011;54976;51.510;7.522;2023-04-25T04:30:44;8.32;;;3.47;;
58637;SDS011;54976;51.510;7.522;2023-04-25T04:33:45;15.43;;;4.07;;
58637;SDS011;54976;51.510;7.522;2023-04-25T04:36:47;15.18;;;4.32;;
58637;SDS011;54976;51.510;7.522;2023-04-25T04:39:48;12.82;;;3.90;;
58637;SDS011;54976;51.510;7.522;2023-04-25T04:42:50;12.25;;;3.13;;
58637;SDS011;54976;51.510;7.522;2023-04-25T04:45:50;12.50;;;3.58;;
58637;SDS011;54976;51.510;7.522;2023-04-25T04:48:51;11.35;;;3.25;;
58637;SDS011;54976;51.510;7.522;2023-04-25T04:51:53;13.13;;;2.50;;
58637;SDS011;54976;51.510;7.522;2023-04-25T04:54:54;16.65;;;3.15;;
58637;SDS011;54976;51.510;7.522;2023-04-25T04:57:55;11.35;;;3.33;;
58637;SDS011;54976;51.510;7.522;2023-04-25T05:00:55;18.05;;;3.67;;
58637;SDS011;54976;51.510;7.522;2023-04-25T05:03:56;9.52;;;3.70;;
58637;SDS011;54976;51.510;7.522;2023-04-25T05:07:00;12.55;;;4.13;;
58637;SDS011;54976;51.510;7.522;2023-04-25T05:10:00;9.30;;;3.38;;
58637;SDS011;54976;51.510;7.522;2023-04-25T05:13:01;16.52;;;3.90;;
58637;SDS011;54976;51.510;7.522;2023-04-25T05:16:02;10.95;;;3.45;;
58637;SDS011;54976;51.510;7.522;2023-04-25T05:19:03;9.70;;;3.90;;
58637;SDS011;54976;51.510;7.522;2023-04-25T05:22:04;11.80;;;3.38;;
58637;SDS011;54976;51.510;7.522;2023-04-25T05:25:05;18.45;;;4.07;;
58637;SDS011;54976;51.510;7.522;2023-04-25T05:28:06;15.32;;;3.40;;
58637;SDS011;54976;51.510;7.522;2023-04-25T05:31:08;11.98;;;3.88;;
58637;SDS011;54976;51.510;7.522;2023-04-25T05:34:10;15.65;;;4.05;;
58637;SDS011;54976;51.510;7.522;2023-04-25T05:37:10;16.63;;;4.10;;
58637;SDS011;54976;51.510;7.522;2023-04-25T05:40:11;16.13;;;3.58;;
58637;SDS011;54976;51.510;7.522;2023-04-25T05:43:12;13.93;;;3.80;;
58637;SDS011;54976;51.510;7.522;2023-04-25T05:46:13;12.57;;;4.40;;
58637;SDS011;54976;51.510;7.522;2023-04-25T05:49:13;15.30;;;3.72;;
58637;SDS011;54976;51.510;7.522;2023-04-25T05:52:14;17.85;;;3.72;;
58637;SDS011;54976;51.510;7.522;2023-04-25T05:55:15;20.25;;;4.05;;
58637;SDS011;54976;51.510;7.522;2023-04-25T05:58:16;13.80;;;4.35;;
58637;SDS011;54976;51.510;7.522;2023-04-25T06:01:16;17.17;;;5.20;;
58637;SDS011;54976;51.510;7.522;2023-04-25T06:04:17;21.15;;;4.90;;
58637;SDS011;54976;51.510;7.522;2023-04-25T06:07:18;18.58;;;4.32;;
58637;SDS011;54976;51.510;7.522;2023-04-25T06:10:19;20.33;;;5.05;;
58637;SDS011;54976;51.510;7.522;2023-04-25T06:13:20;16.67;;;4.45;;
58637;SDS011;54976;51.510;7.522;2023-04-25T06:16:21;23.70;;;4.68;;
58637;SDS011;54976;51.510;7.522;2023-04-25T06:19:21;16.05;;;5.07;;
58637;SDS011;54976;51.510;7.522;2023-04-25T06:22:22;17.25;;;4.05;;
58637;SDS011;54976;51.510;7.522;2023-04-25T06:25:23;14.05;;;4.32;;
58637;SDS011;54976;51.510;7.522;2023-04-25T06:28:23;18.30;;;4.55;;
58637;SDS011;54976;51.510;7.522;2023-04-25T06:31:24;15.07;;;4.13;;
58637;SDS011;54976;51.510;7.522;2023-04-25T06:34:25;20.20;;;4.47;;
58637;SDS011;54976;51.510;7.522;2023-04-25T06:37:26;14.57;;;4.40;;
58637;SDS011;54976;51.510;7.522;2023-04-25T06:40:26;18.58;;;4.28;;
58637;SDS011;54976;51.510;7.522;2023-04-25T06:43:27;20.92;;;4.75;;
58637;SDS011;54976;51.510;7.522;2023-04-25T06:46:28;19.85;;;5.60;;
58637;SDS011;54976;51.510;7.522;2023-04-25T06:49:28;23.67;;;5.30;;
58637;SDS011;54976;51.510;7.522;2023-04-25T06:52:29;33.05;;;5.45;;
58637;SDS011;54976;51.510;7.522;2023-04-25T06:55:30;21.25;;;5.13;;
58637;SDS011;54976;51.510;7.522;2023-04-25T06:58:30;13.75;;;4.72;;
58637;SDS011;54976;51.510;7.522;2023-04-25T07:01:31;16.42;;;5.38;;
58637;SDS011;54976;51.510;7.522;2023-04-25T07:04:31;16.75;;;4.50;;
58637;SDS011;54976;51.510;7.522;2023-04-25T07:07:32;17.10;;;4.30;;
58637;SDS011;54976;51.510;7.522;2023-04-25T07:10:32;15.82;;;3.95;;
58637;SDS011;54976;51.510;7.522;2023-04-25T07:13:33;22.33;;;4.50;;
58637;SDS011;54976;51.510;7.522;2023-04-25T07:16:34;22.60;;;4.10;;
58637;SDS011;54976;51.510;7.522;2023-04-25T07:19:34;15.23;;;3.85;;
58637;SDS011;54976;51.510;7.522;2023-04-25T07:22:36;16.33;;;3.17;;
58637;SDS011;54976;51.510;7.522;2023-04-25T07:25:37;21.45;;;3.50;;
58637;SDS011;54976;51.510;7.522;2023-04-25T07:28:37;13.48;;;3.53;;
58637;SDS011;54976;51.510;7.522;2023-04-25T07:31:38;25.70;;;3.47;;
58637;SDS011;54976;51.510;7.522;2023-04-25T07:34:39;16.25;;;3.67;;
58637;SDS011;54976;51.510;7.522;2023-04-25T07:37:40;16.13;;;3.95;;
58637;SDS011;54976;51.510;7.522;2023-04-25T07:40:40;20.17;;;3.25;;
58637;SDS011;54976;51.510;7.522;2023-04-25T07:43:43;12.85;;;3.60;;
58637;SDS011;54976;51.510;7.522;2023-04-25T07:46:45;18.50;;;3.92;;
58637;SDS011;54976;51.510;7.522;2023-04-25T07:49:45;21.42;;;3.97;;
58637;SDS011;54976;51.510;7.522;2023-04-25T07:52:46;22.40;;;3.47;;
58637;SDS011;54976;51.510;7.522;2023-04-25T07:55:47;16.88;;;4.05;;
58637;SDS011;54976;51.510;7.522;2023-04-25T07:58:47;15.65;;;4.38;;
58637;SDS011;54976;51.510;7.522;2023-04-25T08:01:48;16.95;;;3.50;;
58637;SDS011;54976;51.510;7.522;2023-04-25T08:04:48;15.13;;;2.88;;
58637;SDS011;54976;51.510;7.522;2023-04-25T08:07:49;17.25;;;4.35;;
58637;SDS011;54976;51.510;7.522;2023-04-25T08:10:50;18.55;;;4.18;;
58637;SDS011;54976;51.510;7.522;2023-04-25T08:13:50;24.40;;;3.67;;
58637;SDS011;54976;51.510;7.522;2023-04-25T08:16:51;16.67;;;3.35;;
58637;SDS011;54976;51.510;7.522;2023-04-25T08:19:51;19.73;;;3.80;;
58637;SDS011;54976;51.510;7.522;2023-04-25T08:22:52;10.85;;;2.75;;
58637;SDS011;54976;51.510;7.522;2023-04-25T08:25:53;17.88;;;2.97;;
58637;SDS011;54976;51.510;7.522;2023-04-25T08:28:53;12.93;;;3.33;;
58637;SDS011;54976;51.510;7.522;2023-04-25T08:31:54;15.13;;;2.55;;
58637;SDS011;54976;51.510;7.522;2023-04-25T08:34:54;10.05;;;2.45;;
58637;SDS011;54976;51.510;7.522;2023-04-25T08:37:55;13.48;;;2.17;;
58637;SDS011;54976;51.510;7.522;2023-04-25T08:40:56;19.67;;;2.47;;
58637;SDS011;54976;51.510;7.522;2023-04-25T08:43:57;16.98;;;2.90;;
58637;SDS011;54976;51.510;7.522;2023-04-25T08:47:03;13.50;;;2.33;;
58637;SDS011;54976;51.510;7.522;2023-04-25T08:50:05;17.65;;;2.47;;
58637;SDS011;54976;51.510;7.522;2023-04-25T08:53:07;16.45;;;2.35;;
58637;SDS011;54976;51.510;7.522;2023-04-25T08:56:14;14.57;;;2.28;;
58637;SDS011;54976;51.510;7.522;2023-04-25T08:59:17;9.35;;;2.20;;
58637;SDS011;54976;51.510;7.522;2023-04-25T09:02:18;13.65;;;2.53;;
58637;SDS011;54976;51.510;7.522;2023-04-25T09:05:20;10.07;;;2.33;;
58637;SDS011;54976;51.510;7.522;2023-04-25T09:08:22;13.05;;;2.17;;
58637;SDS011;54976;51.510;7.522;2023-04-25T09:11:23;10.60;;;2.47;;
58637;SDS011;54976;51.510;7.522;2023-04-25T09:14:24;17.67;;;2.78;;
58637;SDS011;54976;51.510;7.522;2023-04-25T09:17:25;14.88;;;2.28;;
58637;SDS011;54976;51.510;7.522;2023-04-25T09:20:26;11.98;;;2.03;;
58637;SDS011;54976;51.510;7.522;2023-04-25T09:23:28;14.68;;;1.92;;
58637;SDS011;54976;51.510;7.522;2023-04-25T09:26:28;10.77;;;1.77;;
58637;SDS011;54976;51.510;7.522;2023-04-25T09:29:32;9.07;;;1.63;;
58637;SDS011;54976;51.510;7.522;2023-04-25T09:32:34;7.28;;;1.67;;
58637;SDS011;54976;51.510;7.522;2023-04-25T09:35:38;11.63;;;2.00;;
58637;SDS011;54976;51.510;7.522;2023-04-25T09:38:42;7.60;;;2.05;;
58637;SDS011;54976;51.510;7.522;2023-04-25T09:41:44;13.80;;;2.53;;
58637;SDS011;54976;51.510;7.522;2023-04-25T09:44:46;10.40;;;2.17;;
58637;SDS011;54976;51.510;7.522;2023-04-25T09:47:47;5.15;;;1.73;;
58637;SDS011;54976;51.510;7.522;2023-04-25T09:54:15;16.10;;;2.28;;
58637;SDS011;54976;51.510;7.522;2023-04-25T09:57:20;10.73;;;2.25;;
58637;SDS011;54976;51.510;7.522;2023-04-25T10:00:22;8.27;;;1.67;;
58637;SDS011;54976;51.510;7.522;2023-04-25T10:03:22;8.55;;;2.50;;
58637;SDS011;54976;51.510;7.522;2023-04-25T10:06:26;8.18;;;1.70;;
58637;SDS011;54976;51.510;7.522;2023-04-25T10:09:28;9.93;;;1.75;;
58637;SDS011;54976;51.510;7.522;2023-04-25T10:12:32;10.23;;;2.05;;
58637;SDS011;54976;51.510;7.522;2023-04-25T10:15:34;12.23;;;1.98;;
58637;SDS011;54976;51.510;7.522;2023-04-25T10:18:36;4.47;;;1.38;;
58637;SDS011;54976;51.510;7.522;2023-04-25T10:21:40;11.52;;;1.40;;
58637;SDS011;54976;51.510;7.522;2023-04-25T10:24:48;8.38;;;1.52;;
58637;SDS011;54976;51.510;7.522;2023-04-25T10:27:51;8.60;;;1.80;;
58637;SDS011;54976;51.510;7.522;2023-04-25T10:30:59;10.70;;;1.27;;
58637;SDS011;54976;51.510;7.522;2023-04-25T10:34:00;8.07;;;1.65;;
58637;SDS011;54976;51.510;7.522;2023-04-25T10:37:01;9.25;;;1.35;;
58637;SDS011;54976;51.510;7.522;2023-04-25T10:40:09;5.70;;;1.35;;
58637;SDS011;54976;51.510;7.522;2023-04-25T10:46:37;6.93;;;1.20;;
58637;SDS011;54976;51.510;7.522;2023-04-25T10:49:41;10.60;;;1.55;;
58637;SDS011;54976;51.510;7.522;2023-04-25T10:52:42;7.38;;;1.48;;
58637;SDS011;54976;51.510;7.522;2023-04-25T10:55:50;11.18;;;1.98;;
58637;SDS011;54976;51.510;7.522;2023-04-25T10:58:51;10.48;;;1.45;;
58637;SDS011;54976;51.510;7.522;2023-04-25T11:02:09;3.85;;;1.30;;
58637;SDS011;54976;51.510;7.522;2023-04-25T11:08:47;3.97;;;1.02;;
58637;SDS011;54976;51.510;7.522;2023-04-25T11:11:53;5.40;;;0.88;;
58637;SDS011;54976;51.510;7.522;2023-04-25T11:14:59;9.23;;;1.65;;
58637;SDS011;54976;51.510;7.522;2023-04-25T11:18:01;6.15;;;1.05;;
58637;SDS011;54976;51.510;7.522;2023-04-25T11:21:02;5.90;;;1.75;;
58637;SDS011;54976;51.510;7.522;2023-04-25T11:24:03;13.63;;;1.33;;
58637;SDS011;54976;51.510;7.522;2023-04-25T11:27:04;7.22;;;1.60;;
58637;SDS011;54976;51.510;7.522;2023-04-25T11:30:14;11.93;;;1.70;;
58637;SDS011;54976;51.510;7.522;2023-04-25T11:33:16;5.03;;;1.00;;
58637;SDS011;54976;51.510;7.522;2023-04-25T11:36:17;6.00;;;1.20;;
58637;SDS011;54976;51.510;7.522;2023-04-25T11:39:20;5.35;;;1.58;;
58637;SDS011;54976;51.510;7.522;2023-04-25T11:42:21;17.73;;;1.30;;
58637;SDS011;54976;51.510;7.522;2023-04-25T11:45:22;7.70;;;1.23;;
58637;SDS011;54976;51.510;7.522;2023-04-25T11:48:23;6.07;;;1.33;;
58637;SDS011;54976;51.510;7.522;2023-04-25T11:51:24;12.18;;;1.48;;
58637;SDS011;54976;51.510;7.522;2023-04-25T11:54:25;7.15;;;1.27;;
58637;SDS011;54976;51.510;7.522;2023-04-25T11:57:26;4.82;;;1.13;;
58637;SDS011;54976;51.510;7.522;2023-04-25T12:00:26;3.03;;;0.98;;
58637;SDS011;54976;51.510;7.522;2023-04-25T12:03:29;3.20;;;0.73;;
58637;SDS011;54976;51.510;7.522;2023-04-25T12:06:32;4.95;;;1.08;;
58637;SDS011;54976;51.510;7.522;2023-04-25T12:09:40;4.45;;;1.10;;
58637;SDS011;54976;51.510;7.522;2023-04-25T12:12:41;5.05;;;0.90;;
58637;SDS011;54976;51.510;7.522;2023-04-25T12:15:43;3.97;;;1.00;;
58637;SDS011;54976;51.510;7.522;2023-04-25T12:18:47;2.88;;;0.88;;
58637;SDS011;54976;51.510;7.522;2023-04-25T12:21:48;6.93;;;1.10;;
58637;SDS011;54976;51.510;7.522;2023-04-25T12:24:49;5.25;;;1.40;;
58637;SDS011;54976;51.510;7.522;2023-04-25T12:27:50;9.63;;;1.25;;
58637;SDS011;54976;51.510;7.522;2023-04-25T12:30:53;4.82;;;1.05;;
58637;SDS011;54976;51.510;7.522;2023-04-25T12:33:57;4.30;;;0.88;;
58637;SDS011;54976;51.510;7.522;2023-04-25T12:36:58;2.53;;;0.70;;
58637;SDS011;54976;51.510;7.522;2023-04-25T12:39:59;5.30;;;0.70;;
58637;SDS011;54976;51.510;7.522;2023-04-25T12:42:59;3.33;;;0.80;;
58637;SDS011;54976;51.510;7.522;2023-04-25T12:46:00;6.68;;;0.80;;
58637;SDS011;54976;51.510;7.522;2023-04-25T12:49:01;2.55;;;0.70;;
58637;SDS011;54976;51.510;7.522;2023-04-25T12:52:06;4.10;;;0.75;;
58637;SDS011;54976;51.510;7.522;2023-04-25T12:55:15;2.65;;;0.75;;
58637;SDS011;54976;51.510;7.522;2023-04-25T12:58:16;5.43;;;0.52;;
58637;SDS011;54976;51.510;7.522;2023-04-25T13:01:17;3.47;;;0.70;;
58637;SDS011;54976;51.510;7.522;2023-04-25T13:04:19;5.97;;;1.20;;
58637;SDS011;54976;51.510;7.522;2023-04-25T13:07:20;3.28;;;0.60;;
58637;SDS011;54976;51.510;7.522;2023-04-25T13:10:21;3.60;;;0.70;;
58637;SDS011;54976;51.510;7.522;2023-04-25T13:13:22;2.80;;;0.70;;
58637;SDS011;54976;51.510;7.522;2023-04-25T13:16:22;2.28;;;0.50;;
58637;SDS011;54976;51.510;7.522;2023-04-25T13:19:23;2.72;;;0.57;;
58637;SDS011;54976;51.510;7.522;2023-04-25T13:22:23;2.15;;;0.80;;
58637;SDS011;54976;51.510;7.522;2023-04-25T13:25:24;2.97;;;0.60;;
58637;SDS011;54976;51.510;7.522;2023-04-25T13:28:25;5.15;;;0.70;;
58637;SDS011;54976;51.510;7.522;2023-04-25T13:31:25;5.72;;;1.05;;
58637;SDS011;54976;51.510;7.522;2023-04-25T13:34:26;3.85;;;0.80;;
58637;SDS011;54976;51.510;7.522;2023-04-25T13:37:26;5.10;;;1.00;;
58637;SDS011;54976;51.510;7.522;2023-04-25T13:40:27;2.88;;;0.85;;
58637;SDS011;54976;51.510;7.522;2023-04-25T13:43:28;3.67;;;0.95;;
58637;SDS011;54976;51.510;7.522;2023-04-25T13:46:28;5.82;;;1.13;;
58637;SDS011;54976;51.510;7.522;2023-04-25T13:49:29;3.03;;;0.77;;
58637;SDS011;54976;51.510;7.522;2023-04-25T13:52:29;4.03;;;0.90;;
58637;SDS011;54976;51.510;7.522;2023-04-25T13:55:30;7.45;;;0.88;;
58637;SDS011;54976;51.510;7.522;2023-04-25T13:58:31;4.13;;;0.70;;
58637;SDS011;54976;51.510;7.522;2023-04-25T14:01:32;30.70;;;3.05;;
58637;SDS011;54976;51.510;7.522;2023-04-25T14:04:35;11.38;;;1.13;;
58637;SDS011;54976;51.510;7.522;2023-04-25T14:07:36;3.75;;;0.70;;
58637;SDS011;54976;51.510;7.522;2023-04-25T14:10:37;1.55;;;0.68;;
58637;SDS011;54976;51.510;7.522;2023-04-25T14:13:37;2.70;;;0.80;;
58637;SDS011;54976;51.510;7.522;2023-04-25T14:16:39;4.90;;;0.77;;
58637;SDS011;54976;51.510;7.522;2023-04-25T14:19:40;2.15;;;0.98;;
58637;SDS011;54976;51.510;7.522;2023-04-25T14:22:45;6.32;;;0.90;;
58637;SDS011;54976;51.510;7.522;2023-04-25T14:25:46;7.65;;;0.95;;
58637;SDS011;54976;51.510;7.522;2023-04-25T14:28:47;5.55;;;1.20;;
58637;SDS011;54976;51.510;7.522;2023-04-25T14:31:48;4.95;;;1.00;;
58637;SDS011;54976;51.510;7.522;2023-04-25T14:34:49;2.28;;;0.80;;
58637;SDS011;54976;51.510;7.522;2023-04-25T14:37:49;9.05;;;1.42;;
58637;SDS011;54976;51.510;7.522;2023-04-25T14:40:50;4.20;;;0.90;;
58637;SDS011;54976;51.510;7.522;2023-04-25T14:43:51;6.38;;;1.10;;
58637;SDS011;54976;51.510;7.522;2023-04-25T14:46:53;3.00;;;0.68;;
58637;SDS011;54976;51.510;7.522;2023-04-25T14:49:53;6.95;;;1.00;;
58637;SDS011;54976;51.510;7.522;2023-04-25T14:52:54;5.32;;;0.98;;
58637;SDS011;54976;51.510;7.522;2023-04-25T14:55:58;3.20;;;0.60;;
58637;SDS011;54976;51.510;7.522;2023-04-25T14:58:59;2.88;;;0.70;;
58637;SDS011;54976;51.510;7.522;2023-04-25T15:02:00;5.82;;;0.80;;
58637;SDS011;54976;51.510;7.522;2023-04-25T15:05:01;5.25;;;0.85;;
58637;SDS011;54976;51.510;7.522;2023-04-25T15:08:03;5.10;;;0.93;;
58637;SDS011;54976;51.510;7.522;2023-04-25T15:11:03;2.83;;;0.82;;
58637;SDS011;54976;51.510;7.522;2023-04-25T15:14:04;4.05;;;0.93;;
58637;SDS011;54976;51.510;7.522;2023-04-25T15:17:05;7.38;;;1.10;;
58637;SDS011;54976;51.510;7.522;2023-04-25T15:20:06;6.68;;;1.38;;
58637;SDS011;54976;51.510;7.522;2023-04-25T15:23:11;3.67;;;1.27;;
58637;SDS011;54976;51.510;7.522;2023-04-25T15:26:12;6.45;;;1.38;;
58637;SDS011;54976;51.510;7.522;2023-04-25T15:29:12;3.25;;;1.00;;
58637;SDS011;54976;51.510;7.522;2023-04-25T15:32:13;4.45;;;1.02;;
58637;SDS011;54976;51.510;7.522;2023-04-25T15:35:14;4.63;;;0.95;;
58637;SDS011;54976;51.510;7.522;2023-04-25T15:38:15;5.07;;;0.80;;
58637;SDS011;54976;51.510;7.522;2023-04-25T15:41:16;4.20;;;1.30;;
58637;SDS011;54976;51.510;7.522;2023-04-25T15:44:17;2.28;;;0.75;;
58637;SDS011;54976;51.510;7.522;2023-04-25T15:47:19;3.25;;;0.82;;
58637;SDS011;54976;51.510;7.522;2023-04-25T15:50:20;4.03;;;0.80;;
58637;SDS011;54976;51.510;7.522;2023-04-25T15:53:21;5.10;;;1.10;;
58637;SDS011;54976;51.510;7.522;2023-04-25T15:56:21;6.03;;;0.93;;
58637;SDS011;54976;51.510;7.522;2023-04-25T15:59:23;2.95;;;0.70;;
58637;SDS011;54976;51.510;7.522;2023-04-25T16:02:24;4.30;;;0.90;;
58637;SDS011;54976;51.510;7.522;2023-04-25T16:05:25;4.78;;;0.60;;
58637;SDS011;54976;51.510;7.522;2023-04-25T16:08:25;1.98;;;0.77;;
58637;SDS011;54976;51.510;7.522;2023-04-25T16:11:28;3.42;;;0.88;;
58637;SDS011;54976;51.510;7.522;2023-04-25T16:14:29;4.38;;;0.90;;
58637;SDS011;54976;51.510;7.522;2023-04-25T16:17:33;2.53;;;1.10;;
58637;SDS011;54976;51.510;7.522;2023-04-25T16:20:34;5.80;;;0.90;;
58637;SDS011;54976;51.510;7.522;2023-04-25T16:23:35;4.60;;;1.00;;
58637;SDS011;54976;51.510;7.522;2023-04-25T16:26:35;7.32;;;1.00;;
58637;SDS011;54976;51.510;7.522;2023-04-25T16:29:36;2.83;;;0.70;;
58637;SDS011;54976;51.510;7.522;2023-04-25T16:32:40;3.45;;;1.20;;
58637;SDS011;54976;51.510;7.522;2023-04-25T16:35:41;5.03;;;1.00;;
58637;SDS011;54976;51.510;7.522;2023-04-25T16:38:41;3.47;;;1.27;;
58637;SDS011;54976;51.510;7.522;2023-04-25T16:41:42;2.67;;;0.98;;
58637;SDS011;54976;51.510;7.522;2023-04-25T16:44:43;5.10;;;1.17;;
58637;SDS011;54976;51.510;7.522;2023-04-25T16:47:43;5.18;;;1.10;;
58637;SDS011;54976;51.510;7.522;2023-04-25T16:50:45;5.30;;;0.98;;
58637;SDS011;54976;51.510;7.522;2023-04-25T16:53:48;2.72;;;0.75;;
58637;SDS011;54976;51.510;7.522;2023-04-25T16:56:49;7.38;;;0.93;;
58637;SDS011;54976;51.510;7.522;2023-04-25T16:59:49;3.22;;;0.90;;
58637;SDS011;54976;51.510;7.522;2023-04-25T17:02:50;6.00;;;1.25;;
58637;SDS011;54976;51.510;7.522;2023-04-25T17:05:52;5.90;;;1.10;;
58637;SDS011;54976;51.510;7.522;2023-04-25T17:08:59;5.90;;;0.95;;
58637;SDS011;54976;51.510;7.522;2023-04-25T17:12:03;5.07;;;1.15;;
58637;SDS011;54976;51.510;7.522;2023-04-25T17:15:04;3.93;;;0.90;;
58637;SDS011;54976;51.510;7.522;2023-04-25T17:18:05;4.90;;;1.30;;
58637;SDS011;54976;51.510;7.522;2023-04-25T17:21:06;3.90;;;1.10;;
58637;SDS011;54976;51.510;7.522;2023-04-25T17:24:07;4.13;;;1.08;;
58637;SDS011;54976;51.510;7.522;2023-04-25T17:27:09;10.80;;;1.20;;
58637;SDS011;54976;51.510;7.522;2023-04-25T17:30:10;8.13;;;1.00;;
58637;SDS011;54976;51.510;7.522;2023-04-25T17:33:11;6.32;;;0.98;;
58637;SDS011;54976;51.510;7.522;2023-04-25T17:36:12;2.78;;;0.82;;
58637;SDS011;54976;51.510;7.522;2023-04-25T17:39:13;5.00;;;1.17;;
58637;SDS011;54976;51.510;7.522;2023-04-25T17:42:16;8.32;;;0.95;;
58637;SDS011;54976;51.510;7.522;2023-04-25T17:45:16;9.32;;;1.20;;
58637;SDS011;54976;51.510;7.522;2023-04-25T17:48:17;8.80;;;1.17;;
58637;SDS011;54976;51.510;7.522;2023-04-25T17:51:18;10.48;;;1.30;;
58637;SDS011;54976;51.510;7.522;2023-04-25T17:54:18;8.70;;;0.98;;
58637;SDS011;54976;51.510;7.522;2023-04-25T17:57:21;4.45;;;1.00;;
58637;SDS011;54976;51.510;7.522;2023-04-25T18:00:24;3.42;;;0.98;;
58637;SDS011;54976;51.510;7.522;2023-04-25T18:03:27;7.40;;;1.75;;
58637;SDS011;54976;51.510;7.522;2023-04-25T18:06:28;2.92;;;0.90;;
58637;SDS011;54976;51.510;7.522;2023-04-25T18:09:29;8.20;;;1.00;;
58637;SDS011;54976;51.510;7.522;2023-04-25T18:12:34;5.50;;;0.85;;